Time;durP1;ratioP1;P1;durP2;ratioP2;P2;SDS_P1;SDS_P2;PMS_P1;PMS_P2;Temp;Humidity;BMP_temperature;BMP_pressure;BME280_temperature;BME280_humidity;BME280_pressure;Samples;Min_cycle;Max_cycle;Signal;HPM_P1;HPM_P2
2022/03/01 00:02:12;;;;;;;18.23;9.65;;;;;;;;;;4953070;29;20054;-66
2022/03/01 00:04:39;;;;;;;13.13;8.38;;;;;;;;;;4952921;29;20055;-66
2022/03/01 00:07:07;;;;;;;17.35;10.02;;;;;;;;;;4954493;28;20047;-66
2022/03/01 00:09:34;;;;;;;15.60;8.63;;;;;;;;;;4953192;29;20082;-66
2022/03/01 00:12:04;;;;;;;19.08;9.88;;;;;;;;;;4952995;29;20051;-66
2022/03/01 00:14:30;;;;;;;14.30;7.90;;;;;;;;;;4953832;29;20410;-66
2022/03/01 00:16:57;;;;;;;15.88;8.30;;;;;;;;;;4954293;29;20106;-67
2022/03/01 00:19:23;;;;;;;15.20;7.80;;;;;;;;;;4953998;29;20102;-66
2022/03/01 00:21:50;;;;;;;16.42;9.75;;;;;;;;;;4953940;29;20051;-67
2022/03/01 00:24:16;;;;;;;14.15;7.93;;;;;;;;;;4953975;29;20105;-66
2022/03/01 00:26:44;;;;;;;16.95;8.80;;;;;;;;;;4953908;29;20530;-67
2022/03/01 00:29:11;;;;;;;17.80;8.77;;;;;;;;;;4953750;28;20502;-65
2022/03/01 00:31:37;;;;;;;15.82;8.75;;;;;;;;;;4967419;28;20047;-66
2022/03/01 00:34:04;;;;;;;14.52;8.55;;;;;;;;;;4973418;28;20046;-67
2022/03/01 00:36:31;;;;;;;18.63;10.30;;;;;;;;;;4973130;28;20054;-66
2022/03/01 00:38:58;;;;;;;14.88;9.18;;;;;;;;;;4972915;28;20553;-67
2022/03/01 00:41:24;;;;;;;16.88;8.80;;;;;;;;;;4971617;28;20058;-66
2022/03/01 00:43:51;;;;;;;17.95;9.30;;;;;;;;;;4972770;28;20050;-67
2022/03/01 00:46:17;;;;;;;19.50;9.05;;;;;;;;;;4973446;28;20130;-66
2022/03/01 00:48:44;;;;;;;18.58;8.50;;;;;;;;;;4972884;28;20121;-66
2022/03/01 00:51:11;;;;;;;14.95;8.52;;;;;;;;;;4971742;28;20051;-66
2022/03/01 00:53:37;;;;;;;17.08;8.52;;;;;;;;;;4971701;28;20050;-66
2022/03/01 00:56:04;;;;;;;17.73;9.18;;;;;;;;;;4972848;28;20126;-66
2022/03/01 00:58:31;;;;;;;16.13;8.40;;;;;;;;;;4972212;28;20043;-68
2022/03/01 01:00:58;;;;;;;16.02;9.00;;;;;;;;;;4955643;28;20498;-66
2022/03/01 01:03:25;;;;;;;17.00;9.30;;;;;;;;;;4975721;28;20051;-67
2022/03/01 01:05:52;;;;;;;15.68;9.43;;;;;;;;;;4976642;28;20051;-66
2022/03/01 01:08:18;;;;;;;18.15;9.55;;;;;;;;;;4974140;28;20046;-66
2022/03/01 01:10:45;;;;;;;20.77;10.07;;;;;;;;;;4957224;29;20130;-67
2022/03/01 01:13:15;;;;;;;18.80;8.93;;;;;;;;;;4957182;28;20110;-66
2022/03/01 01:15:42;;;;;;;18.85;9.57;;;;;;;;;;4956189;29;20051;-67
2022/03/01 01:18:10;;;;;;;18.95;10.23;;;;;;;;;;4957507;28;20055;-66
2022/03/01 01:20:37;;;;;;;15.38;9.90;;;;;;;;;;4957110;29;20051;-65
2022/03/01 01:23:04;;;;;;;18.02;9.70;;;;;;;;;;4955974;29;20102;-67
2022/03/01 01:25:31;;;;;;;16.63;9.30;;;;;;;;;;4955791;29;20050;-66
2022/03/01 01:27:59;;;;;;;17.02;8.93;;;;;;;;;;4940497;29;20055;-67
2022/03/01 01:30:32;;;;;;;17.95;9.82;;;;;;;;;;4975178;28;20090;-67
2022/03/01 01:32:59;;;;;;;19.42;10.20;;;;;;;;;;4975213;28;20176;-67
2022/03/01 01:35:27;;;;;;;18.17;10.00;;;;;;;;;;4974946;28;20105;-67
2022/03/01 01:37:55;;;;;;;17.90;9.85;;;;;;;;;;4975182;28;20050;-66
2022/03/01 01:40:25;;;;;;;15.35;8.55;;;;;;;;;;4975075;28;20097;-65
2022/03/01 01:42:52;;;;;;;15.52;9.25;;;;;;;;;;4975002;28;20102;-65
2022/03/01 01:45:20;;;;;;;14.82;9.18;;;;;;;;;;4974790;28;20050;-66
2022/03/01 01:47:47;;;;;;;20.17;9.38;;;;;;;;;;4959116;28;20082;-66
2022/03/01 01:50:14;;;;;;;15.95;9.40;;;;;;;;;;4955169;29;20187;-66
2022/03/01 01:52:43;;;;;;;18.27;9.85;;;;;;;;;;4956682;29;20051;-66
2022/03/01 01:55:10;;;;;;;17.05;10.00;;;;;;;;;;4955591;28;20110;-66
2022/03/01 01:57:36;;;;;;;16.05;8.85;;;;;;;;;;4956502;29;20044;-67
2022/03/01 02:00:05;;;;;;;17.20;9.43;;;;;;;;;;4970919;28;20082;-66
2022/03/01 02:02:31;;;;;;;17.15;8.98;;;;;;;;;;4974531;28;20417;-66
2022/03/01 02:04:59;;;;;;;17.88;8.88;;;;;;;;;;4958450;28;20129;-65
2022/03/01 02:07:26;;;;;;;16.05;9.18;;;;;;;;;;4975804;28;20410;-66
2022/03/01 02:09:52;;;;;;;15.20;8.80;;;;;;;;;;4975727;28;20108;-67
2022/03/01 02:12:19;;;;;;;17.05;9.32;;;;;;;;;;4975139;28;20055;-67
2022/03/01 02:14:46;;;;;;;16.45;9.73;;;;;;;;;;4974532;28;20109;-67
2022/03/01 02:17:13;;;;;;;18.35;9.27;;;;;;;;;;4969415;28;20055;-66
2022/03/01 02:19:49;;;;;;;16.02;9.50;;;;;;;;;;4956147;28;20180;-66
2022/03/01 02:22:15;;;;;;;18.77;10.02;;;;;;;;;;4939363;29;20047;-66
2022/03/01 02:24:42;;;;;;;16.10;9.57;;;;;;;;;;4939189;29;20055;-67
2022/03/01 02:27:08;;;;;;;17.33;9.73;;;;;;;;;;4959425;28;20051;-67
2022/03/01 02:29:35;;;;;;;15.80;9.55;;;;;;;;;;4975707;28;20050;-68
2022/03/01 02:32:06;;;;;;;18.75;10.50;;;;;;;;;;4973855;28;20465;-66
2022/03/01 02:34:33;;;;;;;17.65;9.38;;;;;;;;;;4975182;28;20046;-68
2022/03/01 02:37:00;;;;;;;20.50;10.55;;;;;;;;;;4973338;28;20078;-67
2022/03/01 02:39:27;;;;;;;16.00;9.50;;;;;;;;;;4974023;28;20054;-66
2022/03/01 02:41:54;;;;;;;20.17;9.80;;;;;;;;;;4973793;28;20058;-66
2022/03/01 02:44:20;;;;;;;16.15;8.85;;;;;;;;;;4957748;28;20058;-67
2022/03/01 02:46:47;;;;;;;18.02;9.48;;;;;;;;;;4971920;28;20324;-66
2022/03/01 02:49:14;;;;;;;16.98;10.18;;;;;;;;;;4938743;29;20082;-66
2022/03/01 02:51:41;;;;;;;16.15;9.80;;;;;;;;;;4954199;29;20118;-67
2022/03/01 02:54:08;;;;;;;15.32;8.68;;;;;;;;;;4954569;29;20055;-66
2022/03/01 02:56:39;;;;;;;17.38;9.52;;;;;;;;;;4940088;29;20058;-66
2022/03/01 02:59:06;;;;;;;16.90;9.55;;;;;;;;;;4973563;28;20049;-67
2022/03/01 03:01:33;;;;;;;19.17;9.35;;;;;;;;;;4973713;28;20058;-66
2022/03/01 03:04:00;;;;;;;17.48;9.75;;;;;;;;;;4973405;28;20055;-66
2022/03/01 03:06:27;;;;;;;16.35;8.75;;;;;;;;;;4974861;28;20429;-67
2022/03/01 03:08:53;;;;;;;18.48;9.15;;;;;;;;;;4974658;28;20093;-66
2022/03/01 03:11:20;;;;;;;18.52;10.02;;;;;;;;;;4973577;28;20109;-67
2022/03/01 03:13:46;;;;;;;16.70;9.68;;;;;;;;;;4957241;28;20097;-65
2022/03/01 03:16:13;;;;;;;18.88;9.73;;;;;;;;;;4974676;28;20129;-67
2022/03/01 03:18:40;;;;;;;19.90;9.75;;;;;;;;;;4974427;28;20051;-65
2022/03/01 03:21:06;;;;;;;16.92;9.65;;;;;;;;;;4974245;28;20054;-65
2022/03/01 03:23:33;;;;;;;19.08;10.13;;;;;;;;;;4974267;28;20120;-64
2022/03/01 03:26:00;;;;;;;17.65;10.13;;;;;;;;;;4956498;28;20518;-65
2022/03/01 03:28:27;;;;;;;17.85;9.82;;;;;;;;;;4956954;28;20096;-66
2022/03/01 03:30:54;;;;;;;17.05;10.00;;;;;;;;;;4972925;28;20051;-65
2022/03/01 03:33:21;;;;;;;19.33;10.35;;;;;;;;;;4973048;28;20101;-66
2022/03/01 03:35:48;;;;;;;14.80;8.68;;;;;;;;;;4956837;28;20055;-64
2022/03/01 03:38:15;;;;;;;19.52;10.15;;;;;;;;;;4963363;28;20051;-64
2022/03/01 03:40:42;;;;;;;16.75;9.60;;;;;;;;;;4954040;28;20047;-65
2022/03/01 03:43:08;;;;;;;18.80;9.20;;;;;;;;;;4953327;29;20466;-65
2022/03/01 03:45:35;;;;;;;18.38;9.95;;;;;;;;;;4954438;29;20054;-65
2022/03/01 03:48:02;;;;;;;18.85;10.43;;;;;;;;;;4954484;28;20083;-65
2022/03/01 03:50:29;;;;;;;18.50;9.80;;;;;;;;;;4953072;29;20054;-65
2022/03/01 03:52:56;;;;;;;19.75;10.98;;;;;;;;;;4954421;28;20055;-64
2022/03/01 03:55:22;;;;;;;19.08;10.60;;;;;;;;;;4953004;29;20466;-64
2022/03/01 03:57:49;;;;;;;16.90;9.93;;;;;;;;;;4954512;29;20063;-65
2022/03/01 04:00:17;;;;;;;17.92;9.40;;;;;;;;;;4937284;29;20051;-66
2022/03/01 04:02:44;;;;;;;19.35;10.77;;;;;;;;;;4954223;28;20510;-66
2022/03/01 04:05:15;;;;;;;19.40;10.80;;;;;;;;;;4976451;23;20048;-70
2022/03/01 04:07:42;;;;;;;17.15;9.93;;;;;;;;;;4954930;28;20051;-71
2022/03/01 04:10:09;;;;;;;17.73;8.95;;;;;;;;;;4954087;28;20051;-71
2022/03/01 04:12:36;;;;;;;17.00;9.77;;;;;;;;;;4954372;28;20047;-71
2022/03/01 04:15:04;;;;;;;19.63;9.40;;;;;;;;;;4954287;28;20099;-71
2022/03/01 04:17:31;;;;;;;17.88;9.77;;;;;;;;;;4954077;28;20051;-70
2022/03/01 04:19:57;;;;;;;19.98;9.77;;;;;;;;;;4954200;29;20414;-71
2022/03/01 04:22:24;;;;;;;19.60;9.90;;;;;;;;;;4953743;28;20054;-71
2022/03/01 04:24:51;;;;;;;17.40;9.30;;;;;;;;;;4953960;29;20059;-71
2022/03/01 04:27:18;;;;;;;16.20;9.55;;;;;;;;;;4954110;29;20059;-71
2022/03/01 04:29:45;;;;;;;15.93;10.00;;;;;;;;;;4954006;28;20043;-71
2022/03/01 04:32:11;;;;;;;18.10;9.25;;;;;;;;;;4952467;29;20106;-71
2022/03/01 04:34:38;;;;;;;17.73;9.48;;;;;;;;;;4953868;29;20051;-71
2022/03/01 04:37:05;;;;;;;16.17;10.10;;;;;;;;;;4952945;28;20074;-71
2022/03/01 04:39:32;;;;;;;17.60;9.15;;;;;;;;;;4953905;28;20410;-71
2022/03/01 04:41:59;;;;;;;21.23;9.85;;;;;;;;;;4953547;28;20080;-71
2022/03/01 04:44:25;;;;;;;18.10;10.25;;;;;;;;;;4953940;29;20106;-71
2022/03/01 04:46:52;;;;;;;21.15;10.27;;;;;;;;;;4955211;29;20054;-71
2022/03/01 04:49:21;;;;;;;17.13;9.63;;;;;;;;;;4963788;28;20461;-71
2022/03/01 04:51:49;;;;;;;16.17;9.05;;;;;;;;;;4965023;29;20055;-71
2022/03/01 04:54:19;;;;;;;19.48;10.00;;;;;;;;;;4965019;28;20058;-71
2022/03/01 04:56:46;;;;;;;16.38;9.35;;;;;;;;;;4959309;28;20078;-72
2022/03/01 04:59:16;;;;;;;18.67;9.73;;;;;;;;;;4958146;29;20043;-71
2022/03/01 05:01:43;;;;;;;21.10;10.40;;;;;;;;;;4977191;28;20059;-71
2022/03/01 05:04:11;;;;;;;14.10;9.00;;;;;;;;;;4979672;28;20110;-71
2022/03/01 05:06:43;;;;;;;16.20;9.38;;;;;;;;;;4961855;29;20054;-72
2022/03/01 05:09:13;;;;;;;15.88;9.88;;;;;;;;;;4960263;28;20106;-71
2022/03/01 05:11:44;;;;;;;17.30;9.45;;;;;;;;;;4939995;29;20471;-71
2022/03/01 05:14:20;;;;;;;15.05;9.25;;;;;;;;;;4939413;29;20130;-72
2022/03/01 05:16:50;;;;;;;17.63;10.18;;;;;;;;;;4939531;29;20568;-72
2022/03/01 05:19:18;;;;;;;17.95;9.60;;;;;;;;;;4954836;29;20130;-72
2022/03/01 05:21:45;;;;;;;22.38;9.82;;;;;;;;;;4959326;29;20061;-72
2022/03/01 05:24:15;;;;;;;17.83;9.85;;;;;;;;;;4959148;29;20079;-71
2022/03/01 05:26:47;;;;;;;15.15;9.57;;;;;;;;;;4959611;28;20078;-72
2022/03/01 05:29:14;;;;;;;20.52;10.05;;;;;;;;;;4960070;29;20390;-71
2022/03/01 05:31:45;;;;;;;18.80;10.38;;;;;;;;;;4959189;29;20051;-72
2022/03/01 05:34:12;;;;;;;17.80;10.27;;;;;;;;;;4956024;28;20098;-71
2022/03/01 05:36:39;;;;;;;20.02;9.73;;;;;;;;;;4954001;28;20062;-72
2022/03/01 05:39:06;;;;;;;20.33;10.70;;;;;;;;;;4953609;28;20060;-72
2022/03/01 05:41:32;;;;;;;19.98;10.25;;;;;;;;;;4952291;29;20106;-72
2022/03/01 05:43:59;;;;;;;19.67;10.48;;;;;;;;;;4953984;28;20074;-72
2022/03/01 05:46:27;;;;;;;20.92;9.90;;;;;;;;;;4953614;29;20502;-71
2022/03/01 05:48:53;;;;;;;17.10;9.63;;;;;;;;;;4956551;28;20051;-71
2022/03/01 05:51:20;;;;;;;15.57;8.45;;;;;;;;;;4956932;29;20113;-71
2022/03/01 05:53:47;;;;;;;24.42;11.35;;;;;;;;;;4957016;28;20055;-71
2022/03/01 05:56:13;;;;;;;17.23;9.02;;;;;;;;;;4957096;28;20074;-72
2022/03/01 05:58:40;;;;;;;21.00;10.52;;;;;;;;;;4956993;29;20133;-71
2022/03/01 06:01:06;;;;;;;19.75;10.02;;;;;;;;;;4957124;28;20099;-72
2022/03/01 06:03:33;;;;;;;17.58;9.27;;;;;;;;;;4953947;29;20058;-71
2022/03/01 06:06:01;;;;;;;20.17;10.85;;;;;;;;;;4956943;28;20137;-71
2022/03/01 06:08:28;;;;;;;17.98;9.95;;;;;;;;;;4956691;29;20075;-71
2022/03/01 06:10:55;;;;;;;18.08;10.48;;;;;;;;;;4944245;29;20051;-72
2022/03/01 06:13:21;;;;;;;18.83;9.70;;;;;;;;;;4938727;29;20055;-71
2022/03/01 06:15:48;;;;;;;17.10;9.70;;;;;;;;;;4940538;29;20051;-71
2022/03/01 06:18:15;;;;;;;16.60;9.75;;;;;;;;;;4942570;29;20047;-71
2022/03/01 06:20:43;;;;;;;21.08;10.18;;;;;;;;;;4953311;29;20564;-71
2022/03/01 06:23:09;;;;;;;18.88;10.02;;;;;;;;;;4971136;28;20114;-72
2022/03/01 06:25:36;;;;;;;18.83;9.73;;;;;;;;;;4971187;28;20513;-71
2022/03/01 06:28:03;;;;;;;18.20;10.07;;;;;;;;;;4952542;28;20453;-71
2022/03/01 06:30:30;;;;;;;20.10;10.25;;;;;;;;;;4946643;29;20414;-72
2022/03/01 06:32:56;;;;;;;23.52;12.27;;;;;;;;;;4956519;29;20062;-73
2022/03/01 06:35:23;;;;;;;19.55;10.70;;;;;;;;;;4956360;29;20110;-72
2022/03/01 06:37:51;;;;;;;20.17;10.95;;;;;;;;;;4956088;28;20071;-73
2022/03/01 06:40:18;;;;;;;17.83;10.23;;;;;;;;;;4956483;28;20051;-73
2022/03/01 06:42:47;;;;;;;19.42;10.25;;;;;;;;;;4956389;28;20055;-72
2022/03/01 06:45:14;;;;;;;15.38;9.30;;;;;;;;;;4956225;28;20056;-71
2022/03/01 06:47:41;;;;;;;16.90;9.13;;;;;;;;;;4952601;28;20574;-72
2022/03/01 06:50:09;;;;;;;18.52;10.23;;;;;;;;;;4945522;29;20056;-71
2022/03/01 06:52:35;;;;;;;21.48;10.10;;;;;;;;;;4960752;29;20107;-71
2022/03/01 06:55:04;;;;;;;18.25;9.40;;;;;;;;;;4947808;29;20051;-71
2022/03/01 06:57:31;;;;;;;13.88;8.63;;;;;;;;;;4955654;29;20051;-71
2022/03/01 06:59:57;;;;;;;17.30;9.93;;;;;;;;;;4963370;28;20408;-70
2022/03/01 07:02:27;;;;;;;16.60;9.00;;;;;;;;;;4962364;29;20470;-70
2022/03/01 07:04:57;;;;;;;17.13;9.15;;;;;;;;;;4953611;29;20115;-70
2022/03/01 07:07:23;;;;;;;18.10;8.90;;;;;;;;;;4953908;28;20058;-70
2022/03/01 07:09:50;;;;;;;14.32;9.00;;;;;;;;;;4952445;29;20465;-70
2022/03/01 07:12:21;;;;;;;13.98;9.15;;;;;;;;;;4953277;28;20059;-70
2022/03/01 07:14:48;;;;;;;18.58;9.05;;;;;;;;;;4953483;28;20125;-70
2022/03/01 07:17:18;;;;;;;16.77;8.90;;;;;;;;;;4953411;28;20086;-70
2022/03/01 07:19:44;;;;;;;19.90;9.70;;;;;;;;;;4953181;29;20055;-70
2022/03/01 07:22:11;;;;;;;16.58;9.02;;;;;;;;;;4953437;29;20134;-69
2022/03/01 07:24:38;;;;;;;14.68;8.40;;;;;;;;;;4953065;29;20517;-70
2022/03/01 07:27:04;;;;;;;15.68;8.77;;;;;;;;;;4953372;29;20102;-69
2022/03/01 07:29:31;;;;;;;19.25;8.52;;;;;;;;;;4953406;29;20043;-70
2022/03/01 07:31:58;;;;;;;16.05;8.98;;;;;;;;;;4953278;29;20051;-69
2022/03/01 07:34:25;;;;;;;19.23;9.48;;;;;;;;;;4953124;29;20580;-69
2022/03/01 07:36:52;;;;;;;18.60;8.88;;;;;;;;;;4952504;28;20200;-69
2022/03/01 07:39:19;;;;;;;16.42;8.85;;;;;;;;;;4953259;29;20102;-69
2022/03/01 07:41:47;;;;;;;13.73;8.15;;;;;;;;;;4952834;29;20109;-70
2022/03/01 07:44:14;;;;;;;15.93;8.40;;;;;;;;;;4953104;29;20395;-69
2022/03/01 07:46:41;;;;;;;13.07;7.85;;;;;;;;;;4952745;29;20055;-70
2022/03/01 07:49:07;;;;;;;14.07;9.38;;;;;;;;;;4953228;28;20055;-69
2022/03/01 07:51:34;;;;;;;14.15;7.93;;;;;;;;;;4952723;28;20497;-70
2022/03/01 07:54:01;;;;;;;15.27;8.13;;;;;;;;;;4952713;29;20114;-70
2022/03/01 07:56:27;;;;;;;16.13;9.93;;;;;;;;;;4951487;29;20051;-71
2022/03/01 07:58:55;;;;;;;15.43;9.55;;;;;;;;;;4953352;28;20047;-71
2022/03/01 08:01:22;;;;;;;14.75;9.50;;;;;;;;;;4952783;28;20066;-70
2022/03/01 08:03:52;;;;;;;14.73;8.90;;;;;;;;;;4952659;28;20059;-70
2022/03/01 08:06:18;;;;;;;16.90;9.23;;;;;;;;;;4952758;29;20106;-70
2022/03/01 08:08:45;;;;;;;16.30;9.05;;;;;;;;;;4953091;28;20058;-70
2022/03/01 08:11:12;;;;;;;13.82;7.97;;;;;;;;;;4952684;28;20059;-69
2022/03/01 08:13:40;;;;;;;15.65;8.00;;;;;;;;;;4952603;29;20054;-67
2022/03/01 08:16:07;;;;;;;15.60;8.00;;;;;;;;;;4952280;28;20055;-70
2022/03/01 08:18:34;;;;;;;16.83;8.75;;;;;;;;;;4952846;28;20065;-70
2022/03/01 08:21:01;;;;;;;14.98;8.98;;;;;;;;;;4952595;29;20047;-70
2022/03/01 08:23:27;;;;;;;13.88;8.05;;;;;;;;;;4952247;29;20284;-70
2022/03/01 08:25:55;;;;;;;13.75;7.78;;;;;;;;;;4952332;28;20054;-70
2022/03/01 08:28:22;;;;;;;15.98;9.18;;;;;;;;;;4951699;28;20055;-71
2022/03/01 08:30:49;;;;;;;14.70;8.13;;;;;;;;;;4952497;29;20126;-71
2022/03/01 08:33:16;;;;;;;13.48;8.48;;;;;;;;;;4933586;29;21619;-70
2022/03/01 08:35:43;;;;;;;17.08;9.13;;;;;;;;;;4936685;29;20059;-69
2022/03/01 08:38:10;;;;;;;14.73;8.70;;;;;;;;;;4940708;28;20477;-69
2022/03/01 08:40:38;;;;;;;13.80;8.82;;;;;;;;;;4941455;29;20098;-69
2022/03/01 08:43:06;;;;;;;14.85;7.68;;;;;;;;;;4939001;28;20047;-69
2022/03/01 08:45:33;;;;;;;13.85;7.90;;;;;;;;;;4957502;28;20051;-69
2022/03/01 08:48:00;;;;;;;10.98;7.68;;;;;;;;;;4938261;28;20047;-69
2022/03/01 08:50:27;;;;;;;14.30;8.10;;;;;;;;;;4941761;29;20517;-69
2022/03/01 08:53:11;;;;;;;;;;;;;;;;;;4939269;29;20084;-69
2022/03/01 08:55:38;;;;;;;13.50;8.00;;;;;;;;;;4932852;29;19994;-70
2022/03/01 08:58:04;;;;;;;12.77;7.95;;;;;;;;;;4939386;29;20052;-72
2022/03/01 09:00:32;;;;;;;15.50;8.15;;;;;;;;;;4938070;29;20054;-71
2022/03/01 09:02:59;;;;;;;13.05;8.00;;;;;;;;;;4938533;28;20047;-70
2022/03/01 09:05:28;;;;;;;12.57;7.38;;;;;;;;;;4940851;28;20070;-73
2022/03/01 09:07:55;;;;;;;13.57;7.25;;;;;;;;;;4938716;29;20087;-73
2022/03/01 09:10:25;;;;;;;14.63;6.85;;;;;;;;;;4941569;29;20391;-69
2022/03/01 09:12:52;;;;;;;11.40;6.55;;;;;;;;;;4942734;29;20055;-68
2022/03/01 09:15:20;;;;;;;15.98;7.22;;;;;;;;;;4944840;28;20102;-68
2022/03/01 09:17:47;;;;;;;11.05;7.57;;;;;;;;;;4940982;29;20447;-67
2022/03/01 09:20:14;;;;;;;14.13;7.78;;;;;;;;;;4933878;29;20107;-67
2022/03/01 09:22:41;;;;;;;12.98;7.45;;;;;;;;;;4939609;28;20395;-67
2022/03/01 09:25:08;;;;;;;14.57;8.50;;;;;;;;;;4944874;29;20055;-69
2022/03/01 09:27:35;;;;;;;12.73;7.90;;;;;;;;;;4946960;29;20059;-67
2022/03/01 09:30:02;;;;;;;13.07;7.07;;;;;;;;;;4946377;28;20051;-67
2022/03/01 09:32:29;;;;;;;10.30;7.18;;;;;;;;;;4943710;28;20055;-67
2022/03/01 09:34:56;;;;;;;14.27;7.55;;;;;;;;;;4944725;29;20066;-67
2022/03/01 09:37:22;;;;;;;12.68;7.53;;;;;;;;;;4946842;29;20048;-67
2022/03/01 09:39:49;;;;;;;12.50;7.30;;;;;;;;;;4947479;29;20122;-67
2022/03/01 09:42:17;;;;;;;13.18;7.20;;;;;;;;;;4942891;29;20044;-67
2022/03/01 09:44:44;;;;;;;12.57;7.00;;;;;;;;;;4944351;29;20043;-67
2022/03/01 09:47:11;;;;;;;13.10;6.70;;;;;;;;;;4945029;29;20051;-67
2022/03/01 09:49:37;;;;;;;12.00;7.22;;;;;;;;;;4944539;29;20055;-67
2022/03/01 09:52:11;;;;;;;10.65;6.95;;;;;;;;;;4942600;29;20189;-67
2022/03/01 09:54:37;;;;;;;12.05;6.75;;;;;;;;;;4944001;28;20199;-67
2022/03/01 09:57:04;;;;;;;14.07;8.13;;;;;;;;;;4944971;29;20048;-67
2022/03/01 09:59:31;;;;;;;12.43;7.15;;;;;;;;;;4942963;29;20055;-67
2022/03/01 10:01:57;;;;;;;10.18;6.57;;;;;;;;;;4944007;29;20399;-67
2022/03/01 10:04:27;;;;;;;13.27;6.43;;;;;;;;;;4942763;29;20051;-67
2022/03/01 10:06:54;;;;;;;11.18;6.38;;;;;;;;;;4978181;23;20086;-64
2022/03/01 10:09:23;;;;;;;13.85;7.30;;;;;;;;;;4961942;28;20059;-65
2022/03/01 10:11:51;;;;;;;10.88;6.65;;;;;;;;;;4963294;28;20047;-64
2022/03/01 10:14:28;;;;;;;12.10;6.38;;;;;;;;;;4962017;28;20473;-65
2022/03/01 10:16:56;;;;;;;11.68;6.32;;;;;;;;;;4963379;28;20051;-67
2022/03/01 10:19:23;;;;;;;12.38;7.07;;;;;;;;;;4963308;28;20050;-64
2022/03/01 10:22:02;;;;;;;14.30;7.63;;;;;;;;;;4963478;28;20054;-65
2022/03/01 10:24:30;;;;;;;12.70;6.60;;;;;;;;;;4963671;28;20125;-65
2022/03/01 10:26:58;;;;;;;12.73;7.35;;;;;;;;;;4965910;28;20106;-65
2022/03/01 10:29:45;;;;;;;12.70;7.15;;;;;;;;;;4954277;28;20043;-66
2022/03/01 10:32:12;;;;;;;10.00;6.78;;;;;;;;;;4965347;28;20094;-78
2022/03/01 10:35:00;;;;;;;12.68;6.47;;;;;;;;;;4936933;28;20490;-73
2022/03/01 10:37:29;;;;;;;13.85;7.15;;;;;;;;;;4971987;28;20698;-71
2022/03/01 10:40:09;;;;;;;14.30;7.03;;;;;;;;;;4961276;28;20051;-70
2022/03/01 10:42:36;;;;;;;11.23;6.55;;;;;;;;;;4962971;28;20087;-72
2022/03/01 10:45:04;;;;;;;10.88;6.53;;;;;;;;;;4965278;28;20544;-73
2022/03/01 10:47:32;;;;;;;11.90;6.50;;;;;;;;;;4964511;28;20051;-73
2022/03/01 10:50:05;;;;;;;10.68;6.78;;;;;;;;;;4944504;28;20109;-71
2022/03/01 10:52:41;;;;;;;11.52;6.68;;;;;;;;;;4963080;28;20278;-69
2022/03/01 10:55:28;;;;;;;8.68;6.00;;;;;;;;;;4961611;28;20134;-71
2022/03/01 10:58:01;;;;;;;11.00;6.40;;;;;;;;;;4961453;28;20055;-70
2022/03/01 11:00:27;;;;;;;11.63;6.65;;;;;;;;;;4971822;28;20507;-69
2022/03/01 11:02:54;;;;;;;9.38;6.47;;;;;;;;;;4962557;28;20468;-69
2022/03/01 11:05:21;;;;;;;11.30;5.88;;;;;;;;;;4960980;28;20054;-69
2022/03/01 11:08:08;;;;;;;10.60;6.30;;;;;;;;;;4963612;28;20094;-69
2022/03/01 11:10:36;;;;;;;11.02;6.03;;;;;;;;;;4961682;28;20057;-68
2022/03/01 11:13:03;;;;;;;11.35;6.15;;;;;;;;;;4972122;28;20050;-67
2022/03/01 11:15:52;;;;;;;9.50;5.88;;;;;;;;;;4971586;28;20046;-67
2022/03/01 11:19:00;;;;;;;8.98;5.75;;;;;;;;;;4976581;28;20051;-73
2022/03/01 11:21:27;;;;;;;10.38;5.75;;;;;;;;;;4960350;28;20054;-73
2022/03/01 11:23:54;;;;;;;11.88;5.70;;;;;;;;;;4944178;28;20051;-71
2022/03/01 11:26:24;;;;;;;11.75;6.13;;;;;;;;;;4963031;28;20509;-69
2022/03/01 11:28:57;;;;;;;9.98;5.80;;;;;;;;;;4963546;28;20055;-73
2022/03/01 11:31:29;;;;;;;9.48;6.30;;;;;;;;;;4964345;28;20054;-70
2022/03/01 11:34:01;;;;;;;10.57;5.60;;;;;;;;;;4947357;28;20053;-70
2022/03/01 11:36:30;;;;;;;10.00;5.78;;;;;;;;;;4970586;28;20089;-72
2022/03/01 11:39:16;;;;;;;10.20;5.70;;;;;;;;;;4960251;28;20051;-73
2022/03/01 11:41:48;;;;;;;10.85;6.00;;;;;;;;;;4964091;28;20066;-72
2022/03/01 11:44:20;;;;;;;9.20;6.35;;;;;;;;;;4959542;28;20048;-72
2022/03/01 11:46:48;;;;;;;7.30;5.75;;;;;;;;;;4962532;28;20055;-72
2022/03/01 11:49:18;;;;;;;10.07;5.88;;;;;;;;;;4969881;28;20123;-70
2022/03/01 11:51:50;;;;;;;8.90;6.53;;;;;;;;;;4959727;28;20051;-69
2022/03/01 11:54:20;;;;;;;8.20;5.57;;;;;;;;;;4966655;28;20379;-70
2022/03/01 11:56:49;;;;;;;8.70;5.93;;;;;;;;;;4962158;28;20054;-71
2022/03/01 11:59:16;;;;;;;10.13;6.25;;;;;;;;;;4959739;28;20527;-70
2022/03/01 12:02:03;;;;;;;11.00;6.13;;;;;;;;;;4949443;28;20054;-70
2022/03/01 12:04:29;;;;;;;11.23;6.05;;;;;;;;;;4942868;28;20055;-71
2022/03/01 12:06:56;;;;;;;10.30;6.07;;;;;;;;;;4963548;28;20050;-73
2022/03/01 12:09:25;;;;;;;9.73;5.90;;;;;;;;;;4943202;28;20051;-72
2022/03/01 12:12:07;;;;;;;8.13;5.25;;;;;;;;;;4959596;28;20049;-73
2022/03/01 12:14:35;;;;;;;9.93;5.80;;;;;;;;;;4964971;28;20051;-68
2022/03/01 12:17:02;;;;;;;8.35;6.40;;;;;;;;;;4960862;28;20055;-74
2022/03/01 12:19:31;;;;;;;8.80;6.05;;;;;;;;;;4960884;28;20059;-71
2022/03/01 12:22:00;;;;;;;8.23;5.55;;;;;;;;;;4959356;28;20107;-73
2022/03/01 12:24:29;;;;;;;9.40;5.38;;;;;;;;;;4962500;28;20134;-72
2022/03/01 12:26:58;;;;;;;8.30;5.47;;;;;;;;;;4953846;28;20051;-67
2022/03/01 12:29:29;;;;;;;9.15;5.45;;;;;;;;;;4962250;28;20055;-67
2022/03/01 12:31:59;;;;;;;11.05;6.18;;;;;;;;;;4960572;28;20050;-67
2022/03/01 12:34:28;;;;;;;10.85;5.35;;;;;;;;;;4959173;28;20062;-68
2022/03/01 12:36:56;;;;;;;9.05;6.13;;;;;;;;;;4961913;28;20054;-73
2022/03/01 12:39:24;;;;;;;8.48;5.47;;;;;;;;;;4958982;28;20051;-74
2022/03/01 12:41:51;;;;;;;12.65;6.35;;;;;;;;;;4943619;29;20069;-73
2022/03/01 12:44:20;;;;;;;9.65;5.95;;;;;;;;;;4959709;28;20051;-66
2022/03/01 12:46:47;;;;;;;10.93;6.10;;;;;;;;;;4962327;28;20101;-69
2022/03/01 12:49:16;;;;;;;9.38;6.05;;;;;;;;;;4960538;28;20611;-68
2022/03/01 12:51:44;;;;;;;14.27;6.90;;;;;;;;;;4960202;28;20047;-71
2022/03/01 12:54:13;;;;;;;9.20;5.68;;;;;;;;;;4963372;28;20522;-68
2022/03/01 12:56:41;;;;;;;6.32;5.00;;;;;;;;;;4958677;28;20436;-70
2022/03/01 12:59:16;;;;;;;8.15;5.95;;;;;;;;;;4960318;28;20101;-68
2022/03/01 13:01:47;;;;;;;7.97;5.30;;;;;;;;;;4961338;28;20047;-70
2022/03/01 13:04:15;;;;;;;8.18;5.88;;;;;;;;;;4961921;28;20078;-69
2022/03/01 13:06:42;;;;;;;10.13;6.30;;;;;;;;;;4964679;28;20079;-74
2022/03/01 13:09:09;;;;;;;7.95;5.50;;;;;;;;;;4958691;28;20044;-68
2022/03/01 13:11:36;;;;;;;8.48;5.80;;;;;;;;;;4963256;28;20043;-80
2022/03/01 13:14:08;;;;;;;7.10;5.50;;;;;;;;;;4954597;28;20047;-71
2022/03/01 13:16:36;;;;;;;8.63;5.85;;;;;;;;;;4965159;28;20058;-77
2022/03/01 13:19:10;;;;;;;7.75;5.47;;;;;;;;;;4934580;28;20053;-76
2022/03/01 13:21:44;;;;;;;;;;;;;;;;;;4964325;28;20413;-75
2022/03/01 13:24:18;;;;;;;8.98;6.03;;;;;;;;;;4960915;28;19934;-76
2022/03/01 13:26:46;;;;;;;12.13;5.88;;;;;;;;;;4968020;28;20078;-73
2022/03/01 13:29:16;;;;;;;8.93;6.35;;;;;;;;;;4961622;28;20046;-71
2022/03/01 13:31:43;;;;;;;8.60;6.00;;;;;;;;;;4959068;28;20106;-68
2022/03/01 13:34:11;;;;;;;8.18;5.65;;;;;;;;;;4960469;28;20137;-70
2022/03/01 13:36:40;;;;;;;8.80;6.15;;;;;;;;;;4962766;28;20442;-74
2022/03/01 13:39:14;;;;;;;7.93;5.97;;;;;;;;;;4946033;28;20098;-75
2022/03/01 13:41:46;;;;;;;10.07;5.72;;;;;;;;;;4967417;28;20043;-70
2022/03/01 13:44:22;;;;;;;12.20;6.93;;;;;;;;;;4960715;28;20098;-69
2022/03/01 13:47:01;;;;;;;9.23;6.22;;;;;;;;;;4961811;28;20681;-69
2022/03/01 13:50:06;;;;;;;9.23;6.20;;;;;;;;;;4961994;28;20580;-73
2022/03/01 13:52:37;;;;;;;8.50;5.95;;;;;;;;;;4961465;28;20054;-76
2022/03/01 13:55:18;;;;;;;9.35;5.70;;;;;;;;;;4959846;28;20047;-78
2022/03/01 13:57:56;;;;;;;9.10;5.70;;;;;;;;;;4959825;28;20074;-71
2022/03/01 14:00:37;;;;;;;8.55;6.10;;;;;;;;;;4968664;28;20133;-77
2022/03/01 14:03:18;;;;;;;9.07;6.13;;;;;;;;;;4963714;28;20509;-78
2022/03/01 14:06:06;;;;;;;10.43;6.45;;;;;;;;;;4970097;28;20062;-82
2022/03/01 14:08:34;;;;;;;10.10;5.97;;;;;;;;;;4975614;28;20121;-74
2022/03/01 14:11:12;;;;;;;9.85;5.53;;;;;;;;;;4975928;28;20042;-77
2022/03/01 14:13:42;;;;;;;10.23;6.13;;;;;;;;;;4971027;28;20123;-75
2022/03/01 14:16:24;;;;;;;8.57;5.78;;;;;;;;;;4940330;28;20055;-77
2022/03/01 14:18:59;;;;;;;10.52;6.30;;;;;;;;;;4967055;28;20142;-81
2022/03/01 14:21:29;;;;;;;11.18;6.22;;;;;;;;;;4956656;28;20043;-75
2022/03/01 14:23:57;;;;;;;9.80;6.22;;;;;;;;;;4969844;28;20445;-71
2022/03/01 14:26:24;;;;;;;8.18;5.60;;;;;;;;;;4963521;28;20054;-75
2022/03/01 14:28:54;;;;;;;10.70;5.60;;;;;;;;;;4964275;28;20101;-71
2022/03/01 14:31:23;;;;;;;9.55;6.03;;;;;;;;;;4960330;28;20663;-74
2022/03/01 14:33:50;;;;;;;10.35;5.80;;;;;;;;;;4964321;28;20051;-76
2022/03/01 14:36:17;;;;;;;10.30;6.35;;;;;;;;;;4963060;28;20079;-79
2022/03/01 14:38:44;;;;;;;9.48;6.43;;;;;;;;;;4946759;28;20109;-71
2022/03/01 14:41:12;;;;;;;11.00;7.25;;;;;;;;;;4961334;28;20098;-71